Time;durP1;ratioP1;P1;durP2;ratioP2;P2;SDS_P1;SDS_P2;PMS_P1;PMS_P2;Temp;Humidity;BMP_temperature;BMP_pressure;BME280_temperature;BME280_humidity;BME280_pressure;Samples;Min_cycle;Max_cycle;Signal;HPM_P1;HPM_P2
2022/09/12 00:00:30;;;;;;;1.70;1.60;;;11.80;99.90;;;;;;5015879;28;20508;-69
2022/09/12 00:02:57;;;;;;;0.50;0.40;;;11.80;99.90;;;;;;5016753;28;20412;-71
2022/09/12 00:05:24;;;;;;;0.50;0.50;;;12.00;99.90;;;;;;5016288;28;20441;-71
2022/09/12 00:07:50;;;;;;;0.40;0.40;;;12.00;99.90;;;;;;5016026;28;21014;-70
2022/09/12 00:10:16;;;;;;;0.70;0.70;;;12.10;99.90;;;;;;5016009;28;20506;-69
2022/09/12 00:12:43;;;;;;;0.30;0.30;;;12.00;99.90;;;;;;5016115;28;20172;-69
2022/09/12 00:15:09;;;;;;;0.40;0.40;;;12.10;99.90;;;;;;5015835;28;20434;-71
2022/09/12 00:17:36;;;;;;;0.40;0.40;;;12.10;99.90;;;;;;5015925;28;20466;-68
2022/09/12 00:20:09;;;;;;;0.57;0.57;;;12.10;99.90;;;;;;5015749;28;20827;-69
2022/09/12 00:22:36;;;;;;;0.40;0.40;;;12.00;99.90;;;;;;5014450;28;20234;-69
2022/09/12 00:25:03;;;;;;;1.03;0.77;;;12.00;99.90;;;;;;5015860;28;20810;-70
2022/09/12 00:27:30;;;;;;;0.90;0.60;;;11.80;99.90;;;;;;5014852;28;20775;-70
2022/09/12 00:30:02;;;;;;;0.40;0.40;;;12.00;99.90;;;;;;5015685;28;20501;-71
2022/09/12 00:32:28;;;;;;;0.30;0.30;;;11.80;99.90;;;;;;5014117;28;20544;-71
2022/09/12 00:34:54;;;;;;;0.43;0.43;;;11.90;99.90;;;;;;5012811;28;20413;-71
2022/09/12 00:37:20;;;;;;;1.33;1.00;;;12.20;99.90;;;;;;5012907;28;20171;-70
2022/09/12 00:39:46;;;;;;;0.60;0.60;;;12.00;99.90;;;;;;5013961;28;20177;-70
2022/09/12 00:42:12;;;;;;;0.40;0.40;;;11.60;99.90;;;;;;5014114;28;20219;-70
2022/09/12 00:44:37;;;;;;;0.50;0.50;;;12.00;99.90;;;;;;5013971;28;20410;-72
2022/09/12 00:47:15;;;;;;;0.37;0.37;;;11.90;99.90;;;;;;5015576;28;20411;-70
2022/09/12 00:49:58;;;;;;;0.40;0.40;;;11.80;99.90;;;;;;5015466;28;20151;-69
2022/09/12 00:53:01;;;;;;;0.77;0.67;;;11.90;99.90;;;;;;5015550;28;20409;-70
2022/09/12 00:55:34;;;;;;;0.83;0.80;;;11.60;99.90;;;;;;5003098;28;20418;-69
2022/09/12 00:58:07;;;;;;;0.40;0.40;;;12.10;99.90;;;;;;5015251;28;20437;-70
2022/09/12 01:00:33;;;;;;;0.50;0.50;;;11.90;99.90;;;;;;5015000;28;20528;-70
2022/09/12 01:03:08;;;;;;;0.47;0.47;;;11.90;99.90;;;;;;5015181;28;20430;-70
2022/09/12 01:05:38;;;;;;;0.50;0.50;;;11.80;99.90;;;;;;5015209;28;20486;-70
2022/09/12 01:08:05;;;;;;;0.30;0.30;;;11.90;99.90;;;;;;5015109;28;20414;-70
2022/09/12 01:10:34;;;;;;;0.40;0.40;;;11.80;99.90;;;;;;5014804;28;20410;-71
2022/09/12 01:13:00;;;;;;;0.40;0.40;;;11.80;99.90;;;;;;5015140;28;20403;-70
2022/09/12 01:15:26;;;;;;;1.50;0.70;;;11.80;99.90;;;;;;5014884;28;20432;-68
2022/09/12 01:18:16;;;;;;;0.40;0.40;;;11.80;99.90;;;;;;5014828;28;20446;-71
2022/09/12 01:21:03;;;;;;;0.50;0.50;;;11.80;99.90;;;;;;5014553;28;20843;-71
2022/09/12 01:23:31;;;;;;;0.77;0.77;;;11.70;99.90;;;;;;5014802;28;20629;-71
2022/09/12 01:26:22;;;;;;;0.60;0.60;;;11.70;99.90;;;;;;5014777;28;20203;-71
2022/09/12 01:29:18;;;;;;;1.10;0.77;;;11.90;99.90;;;;;;5014569;28;20422;-71
2022/09/12 01:32:10;;;;;;;0.47;0.40;;;11.80;99.90;;;;;;5014521;28;20405;-70
2022/09/12 01:34:44;;;;;;;0.30;0.30;;;11.80;99.90;;;;;;4984379;28;20435;-71
2022/09/12 01:37:17;;;;;;;0.50;0.50;;;11.90;99.90;;;;;;5014642;28;20406;-70
2022/09/12 01:39:50;;;;;;;0.30;0.30;;;11.80;99.90;;;;;;5014476;28;20390;-70
2022/09/12 01:42:58;;;;;;;1.00;1.00;;;11.80;99.90;;;;;;5014700;28;20403;-69
2022/09/12 01:45:27;;;;;;;0.30;0.30;;;11.80;99.90;;;;;;5014627;28;20490;-71
2022/09/12 01:48:06;;;;;;;0.83;0.50;;;11.70;99.90;;;;;;5014588;28;20509;-70
2022/09/12 01:50:39;;;;;;;2.78;0.98;;;11.70;99.90;;;;;;5014210;28;20410;-70
2022/09/12 01:53:17;;;;;;;0.40;0.40;;;11.60;99.90;;;;;;5014413;28;20172;-70
2022/09/12 01:56:06;;;;;;;0.40;0.40;;;11.60;99.90;;;;;;5014381;28;20171;-71
2022/09/12 01:58:42;;;;;;;0.50;0.50;;;11.60;99.90;;;;;;5014320;28;20434;-71
2022/09/12 02:01:16;;;;;;;0.67;0.67;;;11.60;99.90;;;;;;5014022;28;20203;-70
2022/09/12 02:04:00;;;;;;;1.42;1.33;;;11.60;99.90;;;;;;5014607;28;20754;-69
2022/09/12 02:06:31;;;;;;;0.40;0.40;;;11.60;99.90;;;;;;5014226;28;20179;-70
2022/09/12 02:09:13;;;;;;;0.97;0.80;;;11.50;99.90;;;;;;5013824;28;20428;-69
2022/09/12 02:11:43;;;;;;;0.30;0.30;;;11.60;99.90;;;;;;5013959;28;20434;-71
2022/09/12 02:14:15;;;;;;;0.40;0.40;;;11.60;99.90;;;;;;5013983;28;20278;-69
2022/09/12 02:16:47;;;;;;;0.70;0.70;;;11.60;99.90;;;;;;5014095;28;20259;-70
2022/09/12 02:19:22;;;;;;;0.43;0.43;;;11.60;99.90;;;;;;5013794;28;20522;-70
2022/09/12 02:22:00;;;;;;;0.30;0.30;;;11.60;99.90;;;;;;5013713;28;20215;-70
2022/09/12 02:24:32;;;;;;;0.50;0.50;;;11.60;99.90;;;;;;5013960;28;20406;-69
2022/09/12 02:27:17;;;;;;;0.93;0.93;;;11.50;99.90;;;;;;5013995;28;20772;-69
2022/09/12 02:29:44;;;;;;;0.50;0.40;;;11.40;99.90;;;;;;5013594;28;20415;-69
2022/09/12 02:32:25;;;;;;;0.60;0.60;;;11.50;99.90;;;;;;5013786;28;20406;-68
2022/09/12 02:35:07;;;;;;;0.90;0.90;;;11.40;99.90;;;;;;5013994;28;20398;-70
2022/09/12 02:38:12;;;;;;;0.50;0.50;;;11.40;99.90;;;;;;5013860;28;20471;-71
2022/09/12 02:40:37;;;;;;;0.30;0.30;;;11.40;99.90;;;;;;5013667;28;20465;-70
2022/09/12 02:43:05;;;;;;;0.73;0.73;;;11.40;99.90;;;;;;5013876;28;20696;-71
2022/09/12 02:45:33;;;;;;;0.30;0.30;;;11.40;99.90;;;;;;5013903;28;20167;-69
2022/09/12 02:48:08;;;;;;;2.20;0.50;;;11.30;99.90;;;;;;5013602;28;20691;-71
2022/09/12 02:50:35;;;;;;;0.30;0.30;;;11.30;99.90;;;;;;5013758;28;20180;-69
2022/09/12 02:53:03;;;;;;;0.30;0.30;;;11.30;99.90;;;;;;5013953;28;20535;-70
2022/09/12 02:55:32;;;;;;;0.30;0.30;;;11.20;99.90;;;;;;5013716;28;20164;-71
2022/09/12 02:57:59;;;;;;;0.40;0.40;;;11.20;99.90;;;;;;5013597;28;20966;-69
2022/09/12 03:00:26;;;;;;;0.40;0.40;;;11.20;99.90;;;;;;5013196;28;20291;-69
2022/09/12 03:03:19;;;;;;;0.52;0.52;;;11.20;99.90;;;;;;5013433;28;20164;-69
2022/09/12 03:06:07;;;;;;;0.40;0.40;;;11.30;99.90;;;;;;5013807;28;20168;-69
2022/09/12 03:08:54;;;;;;;1.23;1.03;;;11.40;99.90;;;;;;5013403;28;20250;-70
2022/09/12 03:11:59;;;;;;;0.70;0.60;;;11.30;99.90;;;;;;5013189;28;20438;-69
2022/09/12 03:14:52;;;;;;;0.30;0.30;;;11.30;99.90;;;;;;4973105;28;20199;-69
2022/09/12 03:17:42;;;;;;;0.60;0.40;;;10.90;99.90;;;;;;5013377;28;20399;-69
2022/09/12 03:20:19;;;;;;;0.43;0.43;;;11.10;99.90;;;;;;5013256;28;20271;-69
2022/09/12 03:22:53;;;;;;;0.70;0.40;;;11.10;99.90;;;;;;5015791;28;20202;-70
2022/09/12 03:25:35;;;;;;;0.30;0.30;;;11.60;99.90;;;;;;5017213;28;20178;-69
2022/09/12 03:28:08;;;;;;;0.40;0.40;;;11.20;99.90;;;;;;5016865;28;20205;-71
2022/09/12 03:30:45;;;;;;;0.52;0.40;;;11.20;99.90;;;;;;5016933;28;20187;-71
2022/09/12 03:33:19;;;;;;;0.97;0.97;;;11.20;99.90;;;;;;5017148;28;20171;-70
2022/09/12 03:35:46;;;;;;;1.40;1.30;;;11.20;99.90;;;;;;5016812;28;20914;-69
2022/09/12 03:38:12;;;;;;;0.95;0.95;;;11.20;99.90;;;;;;5016717;28;20222;-70
2022/09/12 03:40:38;;;;;;;0.40;0.40;;;11.30;99.90;;;;;;5016607;28;20196;-69
2022/09/12 03:43:05;;;;;;;0.40;0.40;;;11.20;99.90;;;;;;5016634;28;20183;-71
2022/09/12 03:45:31;;;;;;;0.30;0.30;;;11.20;99.90;;;;;;5016787;28;20402;-70
2022/09/12 03:47:57;;;;;;;0.30;0.30;;;11.10;99.90;;;;;;5016625;28;20295;-69
2022/09/12 03:50:23;;;;;;;0.73;0.60;;;;;;;;;;5016374;28;20648;-70
2022/09/12 03:52:49;;;;;;;0.30;0.30;;;11.20;99.90;;;;;;5016368;28;20172;-71
2022/09/12 03:55:14;;;;;;;0.50;0.50;;;11.20;99.90;;;;;;5016352;28;20553;-70
2022/09/12 03:57:40;;;;;;;0.63;0.63;;;11.10;99.90;;;;;;5016279;28;20195;-69
2022/09/12 04:00:09;;;;;;;0.40;0.40;;;11.10;99.90;;;;;;5016067;28;20203;-69
2022/09/12 04:02:35;;;;;;;0.70;0.70;;;11.10;99.90;;;;;;5016498;28;20172;-69
2022/09/12 04:05:01;;;;;;;1.03;1.03;;;11.10;99.90;;;;;;5016363;28;20643;-70
2022/09/12 04:07:26;;;;;;;0.40;0.40;;;11.00;99.90;;;;;;5016502;28;20195;-69
2022/09/12 04:09:52;;;;;;;0.80;0.53;;;11.00;99.90;;;;;;5016001;28;20167;-68
2022/09/12 04:12:18;;;;;;;0.40;0.40;;;11.00;99.90;;;;;;5014889;28;20191;-71
2022/09/12 04:14:44;;;;;;;0.70;0.70;;;11.00;99.90;;;;;;5015939;28;20188;-69
2022/09/12 04:17:11;;;;;;;2.03;1.93;;;10.70;99.90;;;;;;5014835;28;20217;-70
2022/09/12 04:19:36;;;;;;;0.57;0.57;;;10.90;99.90;;;;;;5015952;28;20246;-70
2022/09/12 04:22:03;;;;;;;0.30;0.30;;;10.90;99.90;;;;;;5015777;28;20670;-70
2022/09/12 04:24:28;;;;;;;0.50;0.50;;;11.00;99.90;;;;;;5016078;28;20538;-70
2022/09/12 04:26:54;;;;;;;1.00;1.00;;;11.10;99.90;;;;;;5015873;28;20183;-70
2022/09/12 04:29:20;;;;;;;0.30;0.30;;;11.10;99.90;;;;;;5015729;28;20430;-71
2022/09/12 04:31:46;;;;;;;0.90;0.90;;;11.00;99.90;;;;;;5015737;28;20171;-70
2022/09/12 04:34:12;;;;;;;0.40;0.40;;;11.10;99.90;;;;;;5015476;28;20457;-71
2022/09/12 04:36:37;;;;;;;0.60;0.60;;;11.10;99.90;;;;;;5015568;28;20501;-69
2022/09/12 04:39:04;;;;;;;0.30;0.30;;;11.00;99.90;;;;;;5015532;28;20592;-70
2022/09/12 04:41:32;;;;;;;0.70;0.70;;;11.00;99.90;;;;;;5015372;28;20246;-71
2022/09/12 04:44:01;;;;;;;0.50;0.40;;;10.90;99.90;;;;;;5015639;28;20702;-70
2022/09/12 04:46:28;;;;;;;0.30;0.30;;;10.80;99.90;;;;;;5015656;28;20544;-69
2022/09/12 04:48:54;;;;;;;0.73;0.73;;;10.80;99.90;;;;;;5015330;28;20183;-71
2022/09/12 04:51:26;;;;;;;2.00;0.83;;;10.90;99.90;;;;;;5015228;28;20557;-70
2022/09/12 04:53:57;;;;;;;0.30;0.30;;;10.90;99.90;;;;;;5014092;28;20443;-71
2022/09/12 04:56:24;;;;;;;0.55;0.55;;;10.90;99.90;;;;;;5015473;28;20561;-69
2022/09/12 04:58:49;;;;;;;0.40;0.40;;;11.00;99.90;;;;;;5015315;28;20195;-70
2022/09/12 05:01:17;;;;;;;0.70;0.60;;;10.90;99.90;;;;;;5015140;28;20215;-70
2022/09/12 05:03:45;;;;;;;0.30;0.30;;;11.00;99.90;;;;;;5015319;28;20164;-69
2022/09/12 05:06:16;;;;;;;0.50;0.50;;;10.90;99.90;;;;;;5015091;28;20175;-69
2022/09/12 05:08:42;;;;;;;0.50;0.50;;;11.00;99.90;;;;;;5015024;28;20333;-71
2022/09/12 05:11:13;;;;;;;0.50;0.50;;;11.00;99.90;;;;;;5014974;28;20258;-71
2022/09/12 05:13:39;;;;;;;0.40;0.40;;;11.00;99.90;;;;;;5015079;28;20943;-70
2022/09/12 05:16:06;;;;;;;5.03;1.53;;;10.90;99.90;;;;;;5014946;28;20227;-70
2022/09/12 05:18:33;;;;;;;0.30;0.30;;;10.90;99.90;;;;;;5014786;28;20211;-71
2022/09/12 05:20:59;;;;;;;0.40;0.40;;;10.90;99.90;;;;;;5014642;28;20246;-69
2022/09/12 05:23:26;;;;;;;0.65;0.65;;;10.90;99.90;;;;;;5014866;28;20208;-70
2022/09/12 05:25:53;;;;;;;2.15;2.05;;;10.90;99.90;;;;;;5014877;28;20172;-71
2022/09/12 05:28:20;;;;;;;0.75;0.75;;;11.00;99.90;;;;;;5014679;28;20183;-71
2022/09/12 05:30:46;;;;;;;0.32;0.32;;;11.00;99.90;;;;;;5014596;28;20179;-70
2022/09/12 05:33:15;;;;;;;0.43;0.43;;;11.10;99.90;;;;;;5014640;28;20178;-70
2022/09/12 05:35:41;;;;;;;0.30;0.30;;;11.20;99.90;;;;;;5014619;28;20171;-70
2022/09/12 05:38:07;;;;;;;0.50;0.50;;;11.20;99.90;;;;;;5014440;28;20237;-68
2022/09/12 05:40:33;;;;;;;0.50;0.50;;;11.20;99.90;;;;;;5014306;28;20199;-70
2022/09/12 05:42:59;;;;;;;0.82;0.82;;;11.20;99.90;;;;;;5014588;28;20202;-70
2022/09/12 05:45:25;;;;;;;0.30;0.30;;;11.10;99.90;;;;;;5013694;28;20576;-71
2022/09/12 05:47:55;;;;;;;0.50;0.50;;;11.20;99.90;;;;;;5014283;28;20219;-69
2022/09/12 05:50:21;;;;;;;0.30;0.30;;;11.20;99.90;;;;;;5014317;28;20212;-71
2022/09/12 05:52:47;;;;;;;0.60;0.60;;;11.10;99.90;;;;;;5014473;28;20172;-69
2022/09/12 05:55:13;;;;;;;0.40;0.40;;;11.20;99.90;;;;;;5014463;28;20183;-69
2022/09/12 05:57:38;;;;;;;0.50;0.50;;;11.20;99.90;;;;;;5014265;28;20203;-71
2022/09/12 06:00:07;;;;;;;1.53;1.43;;;11.30;99.90;;;;;;5013962;28;20175;-70
2022/09/12 06:02:33;;;;;;;0.65;0.65;;;11.30;99.90;;;;;;5014145;28;20191;-71
2022/09/12 06:04:58;;;;;;;0.80;0.80;;;11.20;99.90;;;;;;5014354;28;20647;-69
2022/09/12 06:07:24;;;;;;;0.30;0.30;;;11.10;99.90;;;;;;5014222;28;20647;-69
2022/09/12 06:09:49;;;;;;;0.67;0.67;;;11.20;99.90;;;;;;5014475;28;20183;-69
2022/09/12 06:12:15;;;;;;;0.30;0.30;;;11.10;99.90;;;;;;5013882;28;20178;-71
2022/09/12 06:14:41;;;;;;;0.30;0.30;;;11.20;99.90;;;;;;5014017;28;20759;-69
2022/09/12 06:17:06;;;;;;;0.50;0.50;;;11.20;99.90;;;;;;5013954;28;20258;-69
2022/09/12 06:19:32;;;;;;;0.77;0.50;;;11.20;99.90;;;;;;5013660;28;20195;-69
2022/09/12 06:21:58;;;;;;;1.43;1.43;;;11.30;99.90;;;;;;5014020;28;20199;-71
2022/09/12 06:24:24;;;;;;;0.70;0.70;;;;;;;;;;5014000;28;20165;-69
2022/09/12 06:26:51;;;;;;;0.30;0.30;;;11.60;99.90;;;;;;5013846;28;20205;-69
2022/09/12 06:29:18;;;;;;;0.37;0.37;;;12.70;99.90;;;;;;5011968;28;20843;-70
2022/09/12 06:31:44;;;;;;;0.50;0.50;;;12.40;99.90;;;;;;5012186;28;20527;-71
2022/09/12 06:34:13;;;;;;;0.43;0.43;;;12.50;99.90;;;;;;5012862;28;20841;-72
2022/09/12 06:36:44;;;;;;;0.50;0.50;;;12.90;99.90;;;;;;5013185;28;20414;-69
2022/09/12 06:39:21;;;;;;;0.40;0.40;;;13.30;99.90;;;;;;5012065;28;20531;-69
2022/09/12 06:41:49;;;;;;;1.80;1.70;;;13.40;99.90;;;;;;5013442;28;20543;-71
2022/09/12 06:44:19;;;;;;;0.63;0.63;;;13.50;99.90;;;;;;5011493;28;21006;-71
2022/09/12 06:46:46;;;;;;;0.40;0.40;;;13.90;99.90;;;;;;5013006;28;20426;-70
2022/09/12 06:49:12;;;;;;;0.50;0.50;;;13.30;99.90;;;;;;5012397;28;20442;-71
2022/09/12 06:51:37;;;;;;;0.50;0.50;;;13.80;99.90;;;;;;5010843;28;20417;-70
2022/09/12 06:54:04;;;;;;;0.70;0.70;;;14.00;99.90;;;;;;5012262;28;20786;-70
2022/09/12 06:56:30;;;;;;;0.40;0.40;;;14.70;99.90;;;;;;5014966;28;20184;-71
2022/09/12 06:58:57;;;;;;;0.40;0.40;;;14.70;99.90;;;;;;5016710;28;20488;-71
2022/09/12 07:01:29;;;;;;;2.77;0.57;;;15.10;99.90;;;;;;5016811;28;20920;-69
2022/09/12 07:04:00;;;;;;;0.40;0.40;;;15.50;99.90;;;;;;5017706;28;20779;-71
2022/09/12 07:06:30;;;;;;;0.40;0.40;;;16.00;99.90;;;;;;5017520;28;20413;-70
2022/09/12 07:09:01;;;;;;;0.50;0.50;;;16.50;99.90;;;;;;5017639;28;20430;-72
2022/09/12 07:11:33;;;;;;;0.50;0.50;;;17.10;99.90;;;;;;5017100;28;20411;-70
2022/09/12 07:14:00;;;;;;;1.70;0.80;;;18.00;99.90;;;;;;5017240;28;20782;-71
2022/09/12 07:16:27;;;;;;;0.50;0.50;;;18.60;99.90;;;;;;5017329;28;20901;-70
2022/09/12 07:18:56;;;;;;;0.50;0.50;;;18.60;99.90;;;;;;5015716;28;20434;-70
2022/09/12 07:21:22;;;;;;;0.40;0.40;;;18.60;99.20;;;;;;5014885;28;20463;-70
2022/09/12 07:23:48;;;;;;;0.30;0.30;;;18.40;97.90;;;;;;5016008;28;20856;-72
2022/09/12 07:26:15;;;;;;;0.40;0.40;;;18.40;98.80;;;;;;5016395;28;20440;-70
2022/09/12 07:28:41;;;;;;;0.60;0.60;;;18.40;97.90;;;;;;5016870;28;20836;-71
2022/09/12 07:31:13;;;;;;;0.57;0.57;;;18.50;97.20;;;;;;5016677;28;20517;-71
2022/09/12 07:33:39;;;;;;;0.77;0.70;;;18.60;96.00;;;;;;5016990;28;20843;-71
2022/09/12 07:36:11;;;;;;;0.47;0.47;;;18.70;95.50;;;;;;5015643;28;21014;-71
2022/09/12 07:38:38;;;;;;;0.30;0.30;;;18.80;96.70;;;;;;5016326;28;20435;-71
2022/09/12 07:41:13;;;;;;;0.40;0.40;;;19.80;99.90;;;;;;5015599;28;20464;-70
2022/09/12 07:43:40;;;;;;;0.53;0.40;;;19.50;96.80;;;;;;5015054;28;20445;-71
2022/09/12 07:46:06;;;;;;;0.30;0.30;;;20.10;95.30;;;;;;5015301;28;20485;-71
2022/09/12 07:48:32;;;;;;;0.40;0.40;;;20.50;94.60;;;;;;5015131;28;20452;-72
2022/09/12 07:51:04;;;;;;;0.50;0.50;;;20.50;92.80;;;;;;5016305;28;20490;-71
2022/09/12 07:53:32;;;;;;;0.30;0.30;;;21.30;93.10;;;;;;5016569;28;20760;-69
2022/09/12 07:55:58;;;;;;;0.30;0.30;;;21.20;93.40;;;;;;5016526;28;20413;-71
2022/09/12 07:58:24;;;;;;;0.30;0.30;;;21.70;92.40;;;;;;5016517;28;20775;-70
2022/09/12 08:00:50;;;;;;;0.40;0.40;;;21.60;99.90;;;;;;5015400;28;20514;-70
2022/09/12 08:03:16;;;;;;;0.60;0.40;;;21.70;90.70;;;;;;5016021;28;20861;-71
2022/09/12 08:05:42;;;;;;;0.30;0.30;;;21.60;92.10;;;;;;5015277;28;20176;-71
2022/09/12 08:08:08;;;;;;;0.40;0.40;;;21.40;92.10;;;;;;5013285;28;20937;-72
2022/09/12 08:10:34;;;;;;;0.40;0.40;;;21.30;92.10;;;;;;5015265;28;20512;-71
2022/09/12 08:13:00;;;;;;;0.30;0.30;;;21.10;91.70;;;;;;5016505;28;20428;-72
2022/09/12 08:15:25;;;;;;;0.40;0.40;;;20.80;92.40;;;;;;5014773;28;20428;-71
2022/09/12 08:17:51;;;;;;;0.60;0.60;;;20.70;92.50;;;;;;5016178;28;20602;-70
2022/09/12 08:20:17;;;;;;;0.40;0.40;;;21.00;92.60;;;;;;5016151;28;20289;-71
2022/09/12 08:22:43;;;;;;;0.30;0.30;;;21.50;92.20;;;;;;5014192;28;20182;-70
2022/09/12 08:25:10;;;;;;;0.40;0.30;;;22.50;91.00;;;;;;5015146;28;20517;-72
2022/09/12 08:27:36;;;;;;;0.50;0.50;;;24.00;87.70;;;;;;5014097;28;20430;-72
2022/09/12 08:30:03;;;;;;;0.50;0.50;;;25.60;82.30;;;;;;5014324;28;20478;-73
2022/09/12 08:32:28;;;;;;;0.50;0.50;;;26.90;71.20;;;;;;5015585;28;20410;-72
2022/09/12 08:34:54;;;;;;;0.40;0.40;;;;;;;;;;5015277;28;20410;-71
2022/09/12 08:37:20;;;;;;;0.67;0.40;;;31.40;71.60;;;;;;5015028;28;20254;-70
2022/09/12 08:39:46;;;;;;;0.43;0.43;;;31.60;53.30;;;;;;5014179;28;21049;-70
2022/09/12 08:42:27;;;;;;;0.40;0.40;;;32.40;52.60;;;;;;5014570;28;20214;-71
2022/09/12 08:45:14;;;;;;;0.50;0.40;;;33.70;52.70;;;;;;5015566;28;20406;-72
2022/09/12 08:47:43;;;;;;;0.40;0.37;;;34.90;48.90;;;;;;5014583;28;20453;-72
2022/09/12 08:50:16;;;;;;;0.40;0.40;;;35.40;45.40;;;;;;5013228;28;20534;-71
2022/09/12 08:53:03;;;;;;;1.27;0.50;;;35.60;44.30;;;;;;5013916;28;20514;-70
2022/09/12 08:55:39;;;;;;;0.30;0.30;;;35.50;42.00;;;;;;5013823;28;20906;-72
2022/09/12 08:58:16;;;;;;;0.40;0.30;;;34.70;41.60;;;;;;5015077;28;20425;-72
2022/09/12 09:01:00;;;;;;;0.37;0.33;;;34.30;41.90;;;;;;5014929;28;20480;-71
2022/09/12 09:03:47;;;;;;;0.40;0.40;;;34.30;41.30;;;;;;5015556;28;20402;-71
2022/09/12 09:06:51;;;;;;;0.53;0.53;;;34.10;39.70;;;;;;5014608;28;20472;-72
2022/09/12 09:09:38;;;;;;;0.40;0.37;;;33.30;40.60;;;;;;5002576;28;20445;-72
2022/09/12 09:12:22;;;;;;;0.30;0.30;;;33.30;40.70;;;;;;5014863;28;20441;-71
2022/09/12 09:15:00;;;;;;;0.37;0.37;;;33.30;40.10;;;;;;5014129;28;20942;-70
2022/09/12 09:17:46;;;;;;;0.40;0.40;;;33.60;52.90;;;;;;5014993;28;20461;-71
2022/09/12 09:20:36;;;;;;;0.40;0.30;;;33.50;39.10;;;;;;5013670;28;20489;-71
2022/09/12 09:23:07;;;;;;;0.50;0.40;;;33.30;40.80;;;;;;5014967;28;20518;-70
2022/09/12 09:25:55;;;;;;;0.60;0.40;;;33.90;41.50;;;;;;5014983;28;20438;-71
2022/09/12 09:28:43;;;;;;;0.40;0.40;;;34.70;41.20;;;;;;5014601;28;20426;-71
2022/09/12 09:31:20;;;;;;;0.40;0.40;;;35.10;37.70;;;;;;5014556;28;20931;-72
2022/09/12 09:33:49;;;;;;;0.30;0.30;;;35.20;38.60;;;;;;5014557;28;20418;-73
2022/09/12 09:36:36;;;;;;;0.40;0.30;;;35.00;37.60;;;;;;5014693;28;20501;-71
2022/09/12 09:39:15;;;;;;;0.30;0.30;;;34.90;37.40;;;;;;5013110;28;20866;-71
2022/09/12 09:41:43;;;;;;;0.40;0.40;;;34.80;38.80;;;;;;5014322;28;20816;-71
2022/09/12 09:44:09;;;;;;;0.40;0.40;;;35.00;38.60;;;;;;5014543;28;20766;-71
2022/09/12 09:46:35;;;;;;;0.40;0.40;;;;;;;;;;5014565;28;20410;-70
2022/09/12 09:49:02;;;;;;;0.30;0.30;;;35.40;37.00;;;;;;5014290;28;20199;-72
2022/09/12 09:51:36;;;;;;;0.67;0.40;;;35.60;37.50;;;;;;5014170;28;20501;-72
2022/09/12 09:54:11;;;;;;;0.30;0.30;;;34.90;36.30;;;;;;5013089;28;20789;-71
2022/09/12 09:56:41;;;;;;;0.40;0.40;;;34.00;37.90;;;;;;5014465;28;20406;-72
2022/09/12 09:59:26;;;;;;;0.33;0.33;;;33.60;39.70;;;;;;5013026;28;20470;-71
2022/09/12 10:01:54;;;;;;;0.40;0.40;;;33.20;40.60;;;;;;5013791;28;20453;-72
2022/09/12 10:04:26;;;;;;;0.30;0.30;;;33.00;40.40;;;;;;5014210;28;20421;-72
2022/09/12 10:06:57;;;;;;;0.40;0.40;;;33.10;40.10;;;;;;5014064;28;20758;-72
2022/09/12 10:09:28;;;;;;;0.50;0.50;;;33.30;40.60;;;;;;5013919;28;20445;-71
2022/09/12 10:11:55;;;;;;;0.40;0.30;;;33.00;40.30;;;;;;5013648;28;20421;-70
2022/09/12 10:14:39;;;;;;;0.40;0.30;;;31.90;40.90;;;;;;5013841;28;20426;-70
2022/09/12 10:17:31;;;;;;;0.30;0.30;;;31.70;41.00;;;;;;5014164;28;20429;-70
2022/09/12 10:19:57;;;;;;;0.50;0.40;;;31.70;42.00;;;;;;5013730;28;20449;-69
2022/09/12 10:22:27;;;;;;;0.30;0.30;;;31.30;42.80;;;;;;5013864;28;20473;-69
2022/09/12 10:24:57;;;;;;;0.40;0.40;;;31.30;42.40;;;;;;5014198;28;20406;-71
2022/09/12 10:27:34;;;;;;;0.30;0.30;;;31.20;54.30;;;;;;5013658;28;20413;-71
2022/09/12 10:30:04;;;;;;;0.40;0.40;;;31.40;41.40;;;;;;5013522;28;20481;-69
2022/09/12 10:32:40;;;;;;;0.40;0.40;;;31.00;42.70;;;;;;5013794;28;20922;-69
2022/09/12 10:35:28;;;;;;;0.40;0.40;;;30.70;43.50;;;;;;5013970;28;20413;-69
2022/09/12 10:38:02;;;;;;;0.40;0.40;;;30.50;43.90;;;;;;5013633;28;20536;-70
2022/09/12 10:40:31;;;;;;;0.40;0.40;;;29.90;43.20;;;;;;5013592;28;20939;-69
2022/09/12 10:42:59;;;;;;;0.43;0.40;;;29.60;43.30;;;;;;5013326;28;20415;-70
2022/09/12 10:45:28;;;;;;;0.30;0.30;;;29.10;44.40;;;;;;5011638;28;20489;-70
2022/09/12 10:47:57;;;;;;;0.30;0.30;;;28.90;46.60;;;;;;5011740;28;20450;-69
2022/09/12 10:50:40;;;;;;;0.30;0.30;;;28.60;45.30;;;;;;5011951;28;20415;-69
2022/09/12 10:53:26;;;;;;;0.60;0.60;;;27.60;46.10;;;;;;5011955;28;20407;-70
2022/09/12 10:56:07;;;;;;;0.30;0.30;;;27.20;47.20;;;;;;5012540;28;20569;-69
2022/09/12 10:58:52;;;;;;;0.40;0.40;;;26.90;50.80;;;;;;5011399;28;20476;-69
2022/09/12 11:01:40;;;;;;;0.40;0.40;;;26.60;49.70;;;;;;5012049;28;20821;-69
2022/09/12 11:04:40;;;;;;;0.40;0.40;;;26.40;49.70;;;;;;5014156;28;20384;-69
2022/09/12 11:07:28;;;;;;;0.30;0.30;;;26.20;46.80;;;;;;5013689;28;20898;-69
2022/09/12 11:10:16;;;;;;;0.30;0.30;;;26.10;51.30;;;;;;5013276;28;20384;-69
2022/09/12 11:13:27;;;;;;;0.40;0.40;;;26.10;48.10;;;;;;5013439;28;20735;-69
2022/09/12 11:16:15;;;;;;;0.30;0.30;;;26.10;50.20;;;;;;5013235;28;20421;-70
2022/09/12 11:18:46;;;;;;;0.47;0.47;;;26.10;53.80;;;;;;5013344;28;20408;-69
2022/09/12 11:21:31;;;;;;;0.30;0.30;;;26.00;49.70;;;;;;5013052;28;20510;-69
2022/09/12 11:24:02;;;;;;;0.37;0.37;;;25.90;51.50;;;;;;5013347;28;20412;-70
2022/09/12 11:26:53;;;;;;;0.30;0.30;;;25.70;51.40;;;;;;5013391;28;20401;-70
2022/09/12 11:29:57;;;;;;;0.40;0.40;;;25.40;50.70;;;;;;4976307;28;20511;-69
2022/09/12 11:32:40;;;;;;;0.40;0.40;;;25.20;51.10;;;;;;5013327;28;20442;-69
2022/09/12 11:35:15;;;;;;;0.67;0.50;;;25.20;52.00;;;;;;5013202;28;20402;-70
2022/09/12 11:38:06;;;;;;;0.40;0.40;;;25.20;50.10;;;;;;5013343;28;20411;-69
2022/09/12 11:40:39;;;;;;;0.40;0.40;;;25.10;52.70;;;;;;5012889;28;20461;-68
2022/09/12 11:43:46;;;;;;;0.30;0.30;;;24.60;72.80;;;;;;5013392;28;20496;-70
2022/09/12 11:46:34;;;;;;;0.30;0.30;;;24.60;51.30;;;;;;4999520;28;20418;-69
2022/09/12 11:49:16;;;;;;;0.50;0.50;;;24.70;55.60;;;;;;5016974;28;20425;-70
2022/09/12 11:52:00;;;;;;;0.30;0.30;;;24.70;51.90;;;;;;5015546;28;20798;-71
2022/09/12 11:54:38;;;;;;;0.50;0.50;;;24.70;54.70;;;;;;5014604;28;20767;-70
2022/09/12 11:57:40;;;;;;;0.40;0.40;;;24.50;53.20;;;;;;5015346;28;20439;-70
2022/09/12 12:00:14;;;;;;;0.30;0.30;;;24.40;53.80;;;;;;5011526;28;20423;-69
2022/09/12 12:03:01;;;;;;;0.40;0.40;;;24.30;53.50;;;;;;5014968;28;20466;-70
2022/09/12 12:05:51;;;;;;;0.60;0.60;;;24.40;55.80;;;;;;5014994;28;20414;-70
2022/09/12 12:08:17;;;;;;;0.30;0.30;;;24.50;53.80;;;;;;5014498;28;20745;-71
2022/09/12 12:10:50;;;;;;;0.40;0.40;;;24.50;53.90;;;;;;5015299;28;20423;-70
2022/09/12 12:13:18;;;;;;;0.77;0.77;;;24.40;53.90;;;;;;5014884;28;20453;-72
2022/09/12 12:15:49;;;;;;;0.87;0.40;;;24.30;54.20;;;;;;5015909;28;20800;-70
2022/09/12 12:18:23;;;;;;;0.40;0.40;;;24.30;56.60;;;;;;5015781;28;20401;-69
2022/09/12 12:20:50;;;;;;;0.40;0.40;;;24.20;55.30;;;;;;5015637;28;20442;-70
2022/09/12 12:23:28;;;;;;;0.40;0.40;;;24.20;55.70;;;;;;5016215;28;20424;-70
2022/09/12 12:25:59;;;;;;;0.30;0.30;;;24.10;55.20;;;;;;5016070;28;20425;-69
2022/09/12 12:28:40;;;;;;;0.50;0.50;;;24.10;54.70;;;;;;5015854;28;20401;-70
2022/09/12 12:31:07;;;;;;;0.37;0.37;;;24.10;55.30;;;;;;5015590;28;20423;-70
2022/09/12 12:33:32;;;;;;;0.40;0.40;;;24.20;56.60;;;;;;5015174;28;20517;-70
2022/09/12 12:35:58;;;;;;;0.30;0.30;;;24.10;57.60;;;;;;5015884;28;20494;-70
2022/09/12 12:38:32;;;;;;;0.50;0.50;;;24.00;56.00;;;;;;5015438;28;20198;-70
2022/09/12 12:41:16;;;;;;;0.43;0.43;;;24.00;57.10;;;;;;5015323;28;20202;-69
2022/09/12 12:43:44;;;;;;;0.50;0.50;;;24.00;63.00;;;;;;5015723;28;20398;-69
2022/09/12 12:46:12;;;;;;;2.30;0.70;;;23.90;56.10;;;;;;5015920;28;20388;-69
2022/09/12 12:48:50;;;;;;;0.40;0.40;;;23.80;55.40;;;;;;5015482;28;20477;-70
2022/09/12 12:51:27;;;;;;;0.50;0.50;;;23.70;55.30;;;;;;5015418;28;20537;-69
2022/09/12 12:53:54;;;;;;;0.40;0.40;;;23.80;54.50;;;;;;5014964;28;20442;-69
2022/09/12 12:56:31;;;;;;;0.67;0.40;;;23.70;54.70;;;;;;5014825;28;20978;-73
2022/09/12 12:59:01;;;;;;;0.37;0.37;;;23.70;57.80;;;;;;5014916;28;20405;-71
2022/09/12 13:01:28;;;;;;;0.30;0.30;;;23.70;58.20;;;;;;5014721;28;20477;-72
2022/09/12 13:03:57;;;;;;;0.40;0.40;;;23.70;53.50;;;;;;5015139;28;20493;-72
2022/09/12 13:06:40;;;;;;;0.93;0.67;;;23.70;53.50;;;;;;5014694;28;20414;-72
2022/09/12 13:09:45;;;;;;;0.40;0.40;;;23.70;56.90;;;;;;5014782;28;20422;-72
2022/09/12 13:12:22;;;;;;;0.30;0.30;;;23.50;53.30;;;;;;5015107;28;20411;-73
2022/09/12 13:14:58;;;;;;;0.40;0.40;;;23.50;58.50;;;;;;5014918;28;20400;-71
2022/09/12 13:17:43;;;;;;;0.30;0.30;;;22.90;78.30;;;;;;5014927;28;20493;-72